Time;durP1;ratioP1;P1;durP2;ratioP2;P2;SDS_P1;SDS_P2;PMS_P1;PMS_P2;Temp;Humidity;BMP_temperature;BMP_pressure;BME280_temperature;BME280_humidity;BME280_pressure;Samples;Min_cycle;Max_cycle;Signal;HPM_P1;HPM_P2
2023/03/08 00:01:19;;;;;;;;;;;12.30;99.90;;;;;;5052996;28;19916;-72
2023/03/08 00:03:45;;;;;;;;;;;12.30;99.90;;;;;;5053257;28;19920;-71
2023/03/08 00:06:12;;;;;;;;;;;12.40;99.90;;;;;;5053299;28;19916;-75
2023/03/08 00:08:38;;;;;;;;;;;12.30;99.90;;;;;;5052526;28;19916;-72
2023/03/08 00:11:07;;;;;;;;;;;12.50;99.90;;;;;;5053469;28;19995;-72
2023/03/08 00:13:33;;;;;;;;;;;12.40;99.90;;;;;;5053245;28;19974;-72
2023/03/08 00:16:02;;;;;;;;;;;12.40;99.90;;;;;;5052891;28;19952;-72
2023/03/08 00:18:28;;;;;;;;;;;12.40;99.90;;;;;;5052618;28;20366;-73
2023/03/08 00:21:00;;;;;;;;;;;12.50;99.90;;;;;;5053008;28;19909;-73
2023/03/08 00:23:26;;;;;;;;;;;12.40;99.90;;;;;;5052555;28;19928;-74
2023/03/08 00:25:52;;;;;;;;;;;12.30;99.90;;;;;;5052816;28;19913;-72
2023/03/08 00:28:18;;;;;;;;;;;12.40;99.90;;;;;;5052986;28;20274;-72
2023/03/08 00:30:43;;;;;;;;;;;12.40;99.90;;;;;;5052711;28;19908;-72
2023/03/08 00:33:09;;;;;;;;;;;12.40;99.90;;;;;;5053338;28;19916;-73
2023/03/08 00:35:35;;;;;;;;;;;12.40;99.90;;;;;;5053042;28;19909;-72
2023/03/08 00:38:00;;;;;;;;;;;12.30;99.90;;;;;;5052642;28;19915;-74
2023/03/08 00:40:26;;;;;;;;;;;12.40;99.90;;;;;;5052909;28;20007;-72
2023/03/08 00:42:52;;;;;;;;;;;12.40;99.90;;;;;;5052709;28;20298;-72
2023/03/08 00:45:18;;;;;;;;;;;12.30;99.90;;;;;;5052747;28;19931;-72
2023/03/08 00:47:43;;;;;;;;;;;12.30;99.90;;;;;;5052588;28;19909;-71
2023/03/08 00:50:09;;;;;;;;;;;12.20;99.90;;;;;;5053056;28;19909;-72
2023/03/08 00:52:35;;;;;;;;;;;12.10;99.90;;;;;;5052712;28;20418;-72
2023/03/08 00:55:00;;;;;;;;;;;12.10;99.90;;;;;;5053071;28;19909;-72
2023/03/08 00:57:26;;;;;;;;;;;12.20;99.90;;;;;;5052611;28;19908;-73
2023/03/08 00:59:52;;;;;;;;;;;12.10;99.90;;;;;;5053009;28;19932;-72
2023/03/08 01:02:18;;;;;;;;;;;12.20;99.90;;;;;;5053184;28;19915;-72
2023/03/08 01:04:43;;;;;;;;;;;12.10;99.90;;;;;;5053166;28;20039;-72
2023/03/08 01:07:09;;;;;;;;;;;12.20;99.90;;;;;;5053243;28;19909;-72
2023/03/08 01:09:35;;;;;;;;;;;12.20;99.90;;;;;;5052595;28;19909;-71
2023/03/08 01:12:00;;;;;;;;;;;12.20;99.90;;;;;;5053066;28;19909;-72
2023/03/08 01:14:26;;;;;;;;;;;12.10;99.90;;;;;;5053135;28;20283;-75
2023/03/08 01:16:52;;;;;;;;;;;12.10;99.90;;;;;;5052755;28;20356;-75
2023/03/08 01:19:17;;;;;;;;;;;12.10;99.90;;;;;;5052563;28;19916;-72
2023/03/08 01:21:43;;;;;;;;;;;12.10;99.90;;;;;;5052525;28;19912;-72
2023/03/08 01:24:09;;;;;;;;;;;12.10;99.90;;;;;;5052445;28;19924;-73
2023/03/08 01:26:34;;;;;;;;;;;12.10;99.90;;;;;;5052485;28;20259;-72
2023/03/08 01:29:00;;;;;;;;;;;12.00;99.90;;;;;;5051090;28;19908;-72
2023/03/08 01:31:27;;;;;;;;;;;12.20;99.90;;;;;;5055393;28;19962;-74
2023/03/08 01:33:53;;;;;;;;;;;12.10;99.90;;;;;;5056083;28;19913;-72
2023/03/08 01:36:21;;;;;;;;;;;12.20;99.90;;;;;;5054612;28;19913;-72
2023/03/08 01:38:47;;;;;;;;;;;12.20;99.90;;;;;;5055771;28;19909;-74
2023/03/08 01:41:23;;;;;;;;;;;12.20;99.90;;;;;;5055585;28;19974;-72
2023/03/08 01:43:50;;;;;;;;;;;12.20;99.90;;;;;;5055593;28;19917;-72
2023/03/08 01:46:32;;;;;;;;;;;12.20;99.90;;;;;;5055940;28;19919;-74
2023/03/08 01:48:58;;;;;;;;;;;12.20;99.90;;;;;;5055783;28;19915;-72
2023/03/08 01:51:32;;;;;;;;;;;12.20;99.90;;;;;;5056545;28;20015;-72
2023/03/08 01:53:59;;;;;;;;;;;12.20;99.90;;;;;;5055780;28;19948;-72
2023/03/08 01:56:26;;;;;;;;;;;12.20;99.90;;;;;;5055773;28;20287;-72
2023/03/08 01:58:54;;;;;;;;;;;12.30;99.90;;;;;;5055136;28;19916;-72
2023/03/08 02:01:20;;;;;;;;;;;12.30;99.90;;;;;;5055513;28;20072;-72
2023/03/08 02:03:47;;;;;;;;;;;12.30;99.90;;;;;;5055814;28;19952;-72
2023/03/08 02:06:13;;;;;;;;;;;12.30;99.90;;;;;;5054340;28;19912;-72
2023/03/08 02:08:41;;;;;;;;;;;12.40;99.90;;;;;;5055306;28;19936;-73
2023/03/08 02:11:07;;;;;;;;;;;12.50;99.90;;;;;;5055290;28;19952;-72
2023/03/08 02:13:32;;;;;;;;;;;12.50;99.90;;;;;;5055518;28;19938;-73
2023/03/08 02:15:59;;;;;;;;;;;12.50;99.90;;;;;;5054257;28;19909;-73
2023/03/08 02:18:25;;;;;;;;;;;12.40;99.90;;;;;;5055536;28;19909;-72
2023/03/08 02:20:51;;;;;;;;;;;12.50;99.90;;;;;;5055271;28;19909;-74
2023/03/08 02:23:21;;;;;;;;;;;12.50;99.90;;;;;;5054895;28;19917;-72
2023/03/08 02:25:49;;;;;;;;;;;12.50;99.90;;;;;;5055293;28;19909;-72
2023/03/08 02:28:15;;;;;;;;;;;12.50;99.90;;;;;;5054871;28;20493;-74
2023/03/08 02:30:41;;;;;;;;;;;12.40;99.90;;;;;;5055200;28;19931;-72
2023/03/08 02:33:07;;;;;;;;;;;12.50;99.90;;;;;;5054826;28;19909;-72
2023/03/08 02:35:34;;;;;;;;;;;12.40;99.90;;;;;;5055108;28;20382;-72
2023/03/08 02:38:00;;;;;;;;;;;12.40;99.90;;;;;;5054522;28;19916;-73
2023/03/08 02:40:26;;;;;;;;;;;12.40;99.90;;;;;;5054624;28;20341;-72
2023/03/08 02:42:51;;;;;;;;;;;12.40;99.90;;;;;;5055176;28;20359;-72
2023/03/08 02:45:17;;;;;;;;;;;12.40;99.90;;;;;;5054713;28;19979;-74
2023/03/08 02:47:43;;;;;;;;;;;12.40;99.90;;;;;;5054273;28;19977;-73
2023/03/08 02:50:09;;;;;;;;;;;12.30;99.90;;;;;;5054905;28;19931;-72
2023/03/08 02:52:35;;;;;;;;;;;12.30;99.90;;;;;;5054126;28;19962;-72
2023/03/08 02:55:00;;;;;;;;;;;12.30;99.90;;;;;;5054708;28;19908;-74
2023/03/08 02:57:26;;;;;;;;;;;12.30;99.90;;;;;;5054561;28;20285;-73
2023/03/08 02:59:51;;;;;;;;;;;12.30;99.90;;;;;;5054275;28;19988;-72
2023/03/08 03:02:17;;;;;;;;;;;12.20;99.90;;;;;;5054138;28;20325;-72
2023/03/08 03:04:43;;;;;;;;;;;12.10;99.90;;;;;;5052524;28;19915;-72
2023/03/08 03:07:09;;;;;;;;;;;12.10;99.90;;;;;;5053863;28;20286;-72
2023/03/08 03:09:35;;;;;;;;;;;12.10;99.90;;;;;;5053498;28;19915;-72
2023/03/08 03:12:00;;;;;;;;;;;12.00;99.90;;;;;;5054126;28;19917;-72
2023/03/08 03:14:27;;;;;;;;;;;12.10;99.90;;;;;;5054056;28;19909;-74
2023/03/08 03:16:52;;;;;;;;;;;12.00;99.90;;;;;;5054335;28;20389;-72
2023/03/08 03:19:18;;;;;;;;;;;11.80;99.90;;;;;;5053907;28;19909;-72
2023/03/08 03:21:43;;;;;;;;;;;11.80;99.90;;;;;;5054068;28;19999;-72
2023/03/08 03:24:09;;;;;;;;;;;11.70;99.90;;;;;;5052611;28;19951;-72
2023/03/08 03:26:35;;;;;;;;;;;11.60;99.90;;;;;;5053982;28;19916;-72
2023/03/08 03:29:01;;;;;;;;;;;11.60;99.90;;;;;;5053752;28;19948;-73
2023/03/08 03:31:27;;;;;;;;;;;11.60;99.90;;;;;;5053890;28;19909;-72
2023/03/08 03:33:53;;;;;;;;;;;11.60;99.90;;;;;;5054176;28;19935;-72
2023/03/08 03:36:19;;;;;;;;;;;11.70;99.90;;;;;;5053516;28;20430;-71
2023/03/08 03:38:45;;;;;;;;;;;11.60;99.90;;;;;;5053239;28;20318;-72
2023/03/08 03:41:12;;;;;;;;;;;11.50;99.90;;;;;;5052571;28;20430;-71
2023/03/08 03:43:38;;;;;;;;;;;11.40;99.90;;;;;;5053973;28;20007;-73
2023/03/08 03:46:06;;;;;;;;;;;11.50;99.90;;;;;;5053588;28;19948;-72
2023/03/08 03:48:35;;;;;;;;;;;11.40;99.90;;;;;;5053239;28;19936;-72
2023/03/08 03:51:03;;;;;;;;;;;11.30;99.90;;;;;;5053493;28;19962;-71
2023/03/08 03:53:29;;;;;;;;;;;11.20;99.90;;;;;;5053334;28;19909;-72
2023/03/08 03:56:00;;;;;;;;;;;11.00;99.90;;;;;;5053209;28;19931;-72
2023/03/08 03:58:26;;;;;;;;;;;11.00;99.90;;;;;;5053318;28;20370;-72
2023/03/08 04:00:51;;;;;;;;;;;11.00;99.90;;;;;;5053193;28;19966;-72
2023/03/08 04:03:17;;;;;;;;;;;11.00;99.90;;;;;;5053362;28;19913;-74
2023/03/08 04:05:43;;;;;;;;;;;11.10;99.90;;;;;;5053370;28;20299;-72
2023/03/08 04:08:08;;;;;;;;;;;11.00;99.90;;;;;;5053222;28;19913;-72
2023/03/08 04:10:34;;;;;;;;;;;10.90;99.90;;;;;;5053517;28;19909;-71
2023/03/08 04:13:00;;;;;;;;;;;10.90;99.90;;;;;;5053558;28;20447;-71
2023/03/08 04:15:26;;;;;;;;;;;10.90;99.90;;;;;;5053543;28;20429;-71
2023/03/08 04:17:52;;;;;;;;;;;10.90;99.90;;;;;;5053212;28;20384;-72
2023/03/08 04:20:18;;;;;;;;;;;10.80;99.90;;;;;;5053034;28;19909;-71
2023/03/08 04:22:44;;;;;;;;;;;10.90;99.90;;;;;;5051986;28;20426;-71
2023/03/08 04:25:09;;;;;;;;;;;10.90;99.90;;;;;;5053152;28;19949;-71
2023/03/08 04:27:35;;;;;;;;;;;10.80;99.90;;;;;;5053195;28;20350;-72
2023/03/08 04:30:01;;;;;;;;;;;10.80;99.90;;;;;;5053680;28;19909;-71
2023/03/08 04:32:27;;;;;;;;;;;10.80;99.90;;;;;;5053284;28;19908;-72
2023/03/08 04:34:53;;;;;;;;;;;10.80;99.90;;;;;;5053015;28;19909;-72
2023/03/08 04:37:21;;;;;;;;;;;10.80;99.90;;;;;;5052959;28;20361;-74
2023/03/08 04:39:46;;;;;;;;;;;10.90;99.90;;;;;;5051669;28;19909;-73
2023/03/08 04:42:12;;;;;;;;;;;10.90;99.90;;;;;;5053398;28;19920;-72
2023/03/08 04:44:38;;;;;;;;;;;10.90;99.90;;;;;;5053220;28;19909;-71
2023/03/08 04:47:04;;;;;;;;;;;10.90;99.90;;;;;;5053080;28;19923;-71
2023/03/08 04:49:29;;;;;;;;;;;10.80;99.90;;;;;;5052763;28;19920;-71
2023/03/08 04:51:55;;;;;;;;;;;10.80;99.90;;;;;;5053026;28;19909;-72
2023/03/08 04:54:21;;;;;;;;;;;10.70;99.90;;;;;;5053033;28;19920;-72
2023/03/08 04:56:47;;;;;;;;;;;10.70;99.90;;;;;;5052804;28;20328;-72
2023/03/08 04:59:12;;;;;;;;;;;10.80;99.90;;;;;;5053073;28;19913;-72
2023/03/08 05:01:38;;;;;;;;;;;10.70;99.90;;;;;;5053305;28;19909;-72
2023/03/08 05:04:04;;;;;;;;;;;10.70;99.90;;;;;;5052712;28;19935;-75
2023/03/08 05:06:29;;;;;;;;;;;10.70;99.90;;;;;;5055666;28;19924;-72
2023/03/08 05:08:58;;;;;;;;;;;10.70;99.90;;;;;;5056285;28;20434;-72
2023/03/08 05:11:25;;;;;;;;;;;10.70;99.90;;;;;;5056483;28;19940;-74
2023/03/08 05:13:54;;;;;;;;;;;10.60;99.90;;;;;;5056629;28;19909;-72
2023/03/08 05:16:20;;;;;;;;;;;10.60;99.90;;;;;;5055108;28;20349;-72
2023/03/08 05:18:46;;;;;;;;;;;10.50;99.90;;;;;;5055944;28;19976;-71
2023/03/08 05:21:13;;;;;;;;;;;10.50;99.90;;;;;;5056342;28;19915;-72
2023/03/08 05:23:39;;;;;;;;;;;10.40;99.90;;;;;;5056455;28;20001;-72
2023/03/08 05:26:05;;;;;;;;;;;10.40;99.90;;;;;;5056079;28;19952;-72
2023/03/08 05:28:32;;;;;;;;;;;10.40;99.90;;;;;;5054783;28;19909;-72
2023/03/08 05:31:05;;;;;;;;;;;10.40;99.90;;;;;;5055182;28;19969;-73
2023/03/08 05:33:31;;;;;;;;;;;10.30;99.90;;;;;;5055763;28;19913;-71
2023/03/08 05:35:57;;;;;;;;;;;10.40;99.90;;;;;;5056150;28;20275;-71
2023/03/08 05:38:23;;;;;;;;;;;10.50;99.90;;;;;;5056081;28;20007;-71
2023/03/08 05:40:49;;;;;;;;;;;10.40;99.90;;;;;;5055944;28;19952;-72
2023/03/08 05:43:15;;;;;;;;;;;10.50;99.90;;;;;;5055600;28;19913;-71
2023/03/08 05:45:40;;;;;;;;;;;10.60;99.90;;;;;;5056348;28;19991;-71
2023/03/08 05:48:06;;;;;;;;;;;10.50;99.90;;;;;;5055443;28;19915;-71
2023/03/08 05:50:32;;;;;;;;;;;10.50;99.90;;;;;;5055772;28;20021;-72
2023/03/08 05:52:57;;;;;;;;;;;10.50;99.90;;;;;;5055879;28;19932;-71
2023/03/08 05:55:23;;;;;;;;;;;10.40;99.90;;;;;;5055526;28;19912;-71
2023/03/08 05:57:49;;;;;;;;;;;10.40;99.90;;;;;;5055121;28;19909;-71
2023/03/08 06:00:15;;;;;;;;;;;10.40;99.90;;;;;;5055552;28;19913;-72
2023/03/08 06:02:41;;;;;;;;;;;10.40;99.90;;;;;;5055367;28;19920;-71
2023/03/08 06:05:06;;;;;;;;;;;10.40;99.90;;;;;;5056300;28;19913;-71
2023/03/08 06:07:32;;;;;;;;;;;10.40;99.90;;;;;;5055882;28;19923;-73
2023/03/08 06:09:58;;;;;;;;;;;10.50;99.90;;;;;;5055312;28;19912;-71
2023/03/08 06:12:24;;;;;;;;;;;10.50;99.90;;;;;;5055286;28;19916;-72
2023/03/08 06:14:53;;;;;;;;;;;10.70;99.90;;;;;;5055220;28;19916;-71
2023/03/08 06:17:18;;;;;;;;;;;10.70;99.90;;;;;;5055053;28;19924;-71
2023/03/08 06:19:45;;;;;;;;;;;10.70;99.90;;;;;;5054005;28;19909;-71
2023/03/08 06:22:10;;;;;;;;;;;10.70;99.90;;;;;;5055042;28;19913;-73
2023/03/08 06:24:36;;;;;;;;;;;10.80;99.90;;;;;;5055287;28;19924;-71
2023/03/08 06:27:02;;;;;;;;;;;10.80;99.90;;;;;;5053991;28;19909;-71
2023/03/08 06:29:27;;;;;;;;;;;10.80;99.90;;;;;;5055122;28;19909;-71
2023/03/08 06:31:53;;;;;;;;;;;10.80;99.90;;;;;;5053868;28;19935;-71
2023/03/08 06:34:19;;;;;;;;;;;10.80;99.90;;;;;;5053909;28;20421;-76
2023/03/08 06:36:44;;;;;;;;;;;10.70;99.90;;;;;;5055152;28;19940;-72
2023/03/08 06:39:10;;;;;;;;;;;10.90;99.90;;;;;;5055210;28;19920;-71
2023/03/08 06:41:36;;;;;;;;;;;10.90;99.90;;;;;;5053227;28;20391;-71
2023/03/08 06:44:01;;;;;;;;;;;11.00;99.90;;;;;;5054685;28;19912;-71
2023/03/08 06:46:27;;;;;;;;;;;11.10;99.90;;;;;;5054737;28;20524;-72
2023/03/08 06:48:53;;;;;;;;;;;11.20;99.90;;;;;;5054748;28;19909;-71
2023/03/08 06:51:19;;;;;;;;;;;11.20;99.90;;;;;;5053061;28;19908;-71
2023/03/08 06:53:45;;;;;;;;;;;11.20;99.90;;;;;;5054750;28;19913;-72
2023/03/08 06:56:13;;;;;;;;;;;11.20;99.90;;;;;;5055104;28;19917;-72
2023/03/08 06:58:38;;;;;;;;;;;11.30;99.90;;;;;;5054697;28;19931;-72
2023/03/08 07:01:04;;;;;;;;;;;11.30;99.90;;;;;;5054465;28;20374;-72
2023/03/08 07:03:30;;;;;;;;;;;11.40;99.90;;;;;;5054319;28;19916;-72
2023/03/08 07:05:59;;;;;;;;;;;11.40;99.90;;;;;;5054251;28;19936;-72
2023/03/08 07:08:25;;;;;;;;;;;11.50;99.90;;;;;;5054054;28;19912;-72
2023/03/08 07:10:51;;;;;;;;;;;11.50;99.90;;;;;;5054131;28;20324;-72
2023/03/08 07:13:16;;;;;;;;;;;11.50;99.90;;;;;;5054217;28;20342;-71
2023/03/08 07:15:42;;;;;;;;;;;11.70;99.90;;;;;;5053361;28;20311;-72
2023/03/08 07:18:10;;;;;;;;;;;11.70;99.90;;;;;;5052700;28;19967;-72
2023/03/08 07:20:36;;;;;;;;;;;11.70;99.90;;;;;;5053998;28;19909;-72
2023/03/08 07:23:02;;;;;;;;;;;11.90;99.90;;;;;;5053671;28;19917;-72
2023/03/08 07:25:28;;;;;;;;;;;11.90;99.90;;;;;;5053995;28;19944;-72
2023/03/08 07:27:54;;;;;;;;;;;11.90;99.90;;;;;;5053128;28;19909;-72
2023/03/08 07:30:20;;;;;;;;;;;12.10;99.90;;;;;;5054257;28;20374;-74
2023/03/08 07:32:45;;;;;;;;;;;12.20;99.90;;;;;;5053590;28;20390;-72
2023/03/08 07:35:12;;;;;;;;;;;12.40;99.90;;;;;;5053699;28;19920;-73
2023/03/08 07:37:38;;;;;;;;;;;12.30;99.90;;;;;;5053833;28;19909;-72
2023/03/08 07:40:04;;;;;;;;;;;12.40;99.90;;;;;;5053916;28;19909;-72
2023/03/08 07:42:30;;;;;;;;;;;12.50;99.90;;;;;;5054058;28;19909;-72
2023/03/08 07:44:56;;;;;;;;;;;12.50;99.90;;;;;;5053349;28;20278;-72
2023/03/08 07:47:22;;;;;;;;;;;12.50;99.90;;;;;;5053111;28;20008;-71
2023/03/08 07:49:48;;;;;;;;;;;12.60;99.90;;;;;;5053329;28;20012;-72
2023/03/08 07:52:13;;;;;;;;;;;12.50;99.90;;;;;;5053604;28;19944;-72
2023/03/08 07:54:39;;;;;;;;;;;12.50;99.90;;;;;;5053630;28;19972;-76
2023/03/08 07:57:05;;;;;;;;;;;12.60;99.90;;;;;;5053134;28;19959;-75
2023/03/08 07:59:31;;;;;;;;;;;12.70;99.90;;;;;;5053601;28;20337;-73
2023/03/08 08:01:56;;;;;;;;;;;12.60;99.90;;;;;;5053338;28;19917;-73
2023/03/08 08:04:22;;;;;;;;;;;12.70;99.90;;;;;;5053437;28;19924;-72
2023/03/08 08:06:48;;;;;;;;;;;12.90;99.90;;;;;;5053640;28;20290;-72
2023/03/08 08:09:14;;;;;;;;;;;12.90;99.90;;;;;;5053695;28;19909;-72
2023/03/08 08:11:40;;;;;;;;;;;12.90;99.90;;;;;;5053649;28;19909;-73
2023/03/08 08:14:06;;;;;;;;;;;13.00;99.90;;;;;;5051917;28;19938;-72
2023/03/08 08:16:32;;;;;;;;;;;13.00;99.90;;;;;;5052450;28;19920;-73
2023/03/08 08:18:57;;;;;;;;;;;13.00;99.90;;;;;;5052868;28;20389;-73
2023/03/08 08:21:23;;;;;;;;;;;13.20;99.90;;;;;;5053045;28;19909;-73
2023/03/08 08:23:56;;;;;;;;;;;13.30;99.90;;;;;;5051727;28;19927;-74
2023/03/08 08:26:22;;;;;;;;;;;13.30;99.90;;;;;;5053476;28;19919;-73
2023/03/08 08:28:50;;;;;;;;;;;13.30;99.90;;;;;;5052665;28;20003;-73
2023/03/08 08:31:18;;;;;;;;;;;13.40;99.90;;;;;;5053235;28;20306;-73
2023/03/08 08:33:44;;;;;;;;;;;13.40;99.90;;;;;;5053480;28;19916;-73
2023/03/08 08:36:13;;;;;;;;;;;13.50;99.90;;;;;;5053073;28;19909;-73
2023/03/08 08:38:39;;;;;;;;;;;13.50;99.90;;;;;;5053117;28;19955;-73
2023/03/08 08:41:06;;;;;;;;;;;13.60;99.90;;;;;;5057034;28;19908;-73
2023/03/08 08:43:32;;;;;;;;;;;13.60;99.90;;;;;;5056796;28;19920;-74
2023/03/08 08:45:58;;;;;;;;;;;13.60;99.90;;;;;;5057187;28;19955;-73
2023/03/08 08:48:24;;;;;;;;;;;13.70;99.90;;;;;;5056268;28;19909;-73
2023/03/08 08:50:50;;;;;;;;;;;13.80;99.90;;;;;;5056809;28;19971;-73
2023/03/08 08:53:16;;;;;;;;;;;13.80;99.90;;;;;;5057031;28;20008;-74
2023/03/08 08:55:42;;;;;;;;;;;13.80;99.90;;;;;;5056786;28;20401;-73
2023/03/08 08:58:08;;;;;;;;;;;13.90;99.90;;;;;;5056583;28;19912;-73
2023/03/08 09:00:34;;;;;;;;;;;13.90;99.90;;;;;;5056980;28;19931;-73
2023/03/08 09:03:00;;;;;;;;;;;13.90;99.90;;;;;;5056323;28;19982;-73
2023/03/08 09:05:26;;;;;;;;;;;13.90;99.90;;;;;;5056415;28;19908;-73
2023/03/08 09:07:52;;;;;;;;;;;13.90;99.90;;;;;;5056268;28;19909;-73
2023/03/08 09:10:18;;;;;;;;;;;14.00;99.90;;;;;;5056117;28;19915;-73
2023/03/08 09:12:44;;;;;;;;;;;14.00;99.90;;;;;;5055857;28;19909;-73
2023/03/08 09:15:10;;;;;;;;;;;14.10;99.90;;;;;;5056518;28;20012;-73
2023/03/08 09:17:36;;;;;;;;;;;14.10;99.90;;;;;;5056179;28;19915;-73
2023/03/08 09:20:05;;;;;;;;;;;14.20;99.90;;;;;;5054863;28;20106;-73
2023/03/08 09:22:31;;;;;;;;;;;14.20;99.90;;;;;;5055241;28;19923;-73
2023/03/08 09:24:56;;;;;;;;;;;14.30;99.90;;;;;;5054671;28;19908;-73
2023/03/08 09:27:22;;;;;;;;;;;14.40;99.90;;;;;;5054827;28;19913;-73
2023/03/08 09:29:47;;;;;;;;;;;14.50;99.90;;;;;;5056312;28;20046;-74
2023/03/08 09:32:13;;;;;;;;;;;14.40;99.90;;;;;;5055718;28;19958;-73
2023/03/08 09:34:39;;;;;;;;;;;14.50;99.90;;;;;;5056217;28;19918;-73
2023/03/08 09:37:07;;;;;;;;;;;14.50;99.90;;;;;;5056012;28;19916;-73
2023/03/08 09:39:33;;;;;;;;;;;14.70;99.90;;;;;;5055025;28;19920;-73
2023/03/08 09:42:00;;;;;;;;;;;14.70;99.90;;;;;;5056224;28;19909;-73
2023/03/08 09:44:42;;;;;;;;;;;14.80;99.90;;;;;;5055891;28;19981;-73
2023/03/08 09:47:14;;;;;;;;;;;14.80;99.90;;;;;;5055966;28;19909;-74
2023/03/08 09:49:41;;;;;;;;;;;15.00;99.90;;;;;;5055335;28;19915;-73
2023/03/08 09:52:16;;;;;;;;;;;15.10;99.90;;;;;;5053740;28;19916;-73
2023/03/08 09:54:42;;;;;;;;;;;15.10;99.90;;;;;;5055637;28;20255;-73
2023/03/08 09:57:31;;;;;;;;;;;15.10;99.90;;;;;;5054094;28;20367;-74
2023/03/08 09:59:58;;;;;;;;;;;15.20;99.90;;;;;;5051166;28;19958;-73
2023/03/08 10:02:42;;;;;;;;;;;15.20;99.90;;;;;;5053748;28;19915;-73
2023/03/08 10:05:08;;;;;;;;;;;15.20;99.90;;;;;;5055440;28;19951;-74
2023/03/08 10:07:34;;;;;;;;;;;15.30;99.90;;;;;;5055002;28;19954;-73
2023/03/08 10:10:05;;;;;;;;;;;15.20;99.90;;;;;;5054303;28;19909;-74
2023/03/08 10:12:40;;;;;;;;;;;15.20;99.90;;;;;;5055292;28;19963;-73
2023/03/08 10:15:13;;;;;;;;;;;15.00;99.90;;;;;;5055097;28;19909;-73
2023/03/08 10:17:58;;;;;;;;;;;14.90;99.90;;;;;;5054842;28;19935;-73
2023/03/08 10:20:26;;;;;;;;;;;14.80;99.90;;;;;;5053517;28;19917;-73
2023/03/08 10:22:56;;;;;;;;;;;14.70;99.90;;;;;;5061988;28;19939;-73
2023/03/08 10:25:30;;;;;;;;;;;14.80;99.90;;;;;;5072852;28;19912;-73
2023/03/08 10:27:57;;;;;;;;;;;14.80;99.90;;;;;;5068271;28;19909;-73
2023/03/08 10:30:25;;;;;;;;;;;14.80;99.90;;;;;;5074549;28;19913;-73
2023/03/08 10:32:52;;;;;;;;;;;14.80;99.90;;;;;;5074574;28;19915;-73
2023/03/08 10:35:29;;;;;;;;;;;14.80;99.90;;;;;;5057691;28;19936;-74
2023/03/08 10:37:54;;;;;;;;;;;14.70;99.90;;;;;;5051813;28;19924;-72
2023/03/08 10:40:21;;;;;;;;;;;14.60;99.90;;;;;;5053975;28;19909;-73
2023/03/08 10:43:02;;;;;;;;;;;14.60;99.90;;;;;;5053965;28;20016;-74
2023/03/08 10:45:28;;;;;;;;;;;14.60;99.90;;;;;;5055585;28;19927;-77
2023/03/08 10:48:04;;;;;;;;;;;14.60;99.90;;;;;;5054677;28;20271;-74
2023/03/08 10:50:31;;;;;;;;;;;14.60;99.90;;;;;;5055355;28;19908;-73
2023/03/08 10:53:07;;;;;;;;;;;14.60;99.90;;;;;;5055264;28;19909;-73
2023/03/08 10:55:38;;;;;;;;;;;14.60;99.90;;;;;;5052945;28;19916;-73
2023/03/08 10:58:05;;;;;;;;;;;14.60;99.90;;;;;;5054309;28;19915;-73
2023/03/08 11:00:38;;;;;;;;;;;14.60;99.90;;;;;;5047209;28;19913;-73
2023/03/08 11:03:11;;;;;;;;;;;14.50;99.90;;;;;;5047234;28;19944;-74
2023/03/08 11:05:37;;;;;;;;;;;14.50;99.90;;;;;;5046556;28;19964;-76
2023/03/08 11:08:03;;;;;;;;;;;14.50;99.90;;;;;;5050986;28;19925;-73
2023/03/08 11:10:31;;;;;;;;;;;14.40;99.90;;;;;;5047559;28;19908;-73
2023/03/08 11:13:15;;;;;;;;;;;14.40;99.90;;;;;;5048540;28;20439;-73
2023/03/08 11:15:44;;;;;;;;;;;14.40;99.90;;;;;;5052122;28;19954;-74
2023/03/08 11:18:12;;;;;;;;;;;14.30;99.90;;;;;;5049999;28;19959;-73
2023/03/08 11:20:41;;;;;;;;;;;14.10;99.90;;;;;;5051769;28;20361;-73
2023/03/08 11:23:12;;;;;;;;;;;14.00;99.90;;;;;;5053492;28;20416;-74
2023/03/08 11:26:12;;;;;;;;;;;13.90;99.90;;;;;;5052770;28;20264;-73
2023/03/08 11:28:40;;;;;;;;;;;13.80;99.90;;;;;;5053163;28;19912;-73
2023/03/08 11:31:15;;;;;;;;;;;13.70;99.90;;;;;;5053882;28;19909;-74
2023/03/08 11:33:41;;;;;;;;;;;13.70;99.90;;;;;;5053342;28;19909;-73
2023/03/08 11:36:12;;;;;;;;;;;13.80;99.90;;;;;;5053630;28;20289;-73
2023/03/08 11:38:38;;;;;;;;;;;13.70;99.90;;;;;;5053606;28;19913;-74
2023/03/08 11:41:18;;;;;;;;;;;13.70;99.90;;;;;;5053747;28;19909;-73
2023/03/08 11:44:02;;;;;;;;;;;13.70;99.90;;;;;;5053312;28;19919;-74
2023/03/08 11:46:31;;;;;;;;;;;13.70;99.90;;;;;;5054045;28;19909;-73
2023/03/08 11:49:10;;;;;;;;;;;13.80;99.90;;;;;;5053324;28;19928;-73
2023/03/08 11:51:43;;;;;;;;;;;13.80;99.90;;;;;;5052205;28;20397;-73
2023/03/08 11:54:15;;;;;;;;;;;13.80;99.90;;;;;;5053560;28;19956;-74
2023/03/08 11:57:07;;;;;;;;;;;13.80;99.90;;;;;;5053494;28;19965;-74
2023/03/08 11:59:34;;;;;;;;;;;13.80;99.90;;;;;;5052004;28;19996;-73
2023/03/08 12:02:10;;;;;;;;;;;13.80;99.90;;;;;;5053302;28;19909;-74
2023/03/08 12:04:40;;;;;;;;;;;13.80;99.90;;;;;;5053303;28;19913;-74
2023/03/08 12:07:11;;;;;;;;;;;13.90;99.90;;;;;;5053782;28;20353;-74
2023/03/08 12:09:42;;;;;;;;;;;13.90;99.90;;;;;;5052228;28;19950;-73
2023/03/08 12:12:12;;;;;;;;;;;14.00;99.90;;;;;;5053989;28;19916;-72
2023/03/08 12:14:48;;;;;;;;;;;14.00;99.90;;;;;;5053305;28;19915;-72
2023/03/08 12:17:13;;;;;;;;;;;14.10;99.90;;;;;;5052648;28;19909;-72
2023/03/08 12:19:43;;;;;;;;;;;14.00;99.90;;;;;;5053521;28;19909;-72
2023/03/08 12:22:24;;;;;;;;;;;14.10;99.90;;;;;;5053782;28;19913;-72
2023/03/08 12:24:57;;;;;;;;;;;14.10;99.90;;;;;;5051431;28;21824;-71
2023/03/08 12:27:28;;;;;;;;;;;14.20;99.90;;;;;;5053266;28;19920;-72
2023/03/08 12:29:57;;;;;;;;;;;14.20;99.90;;;;;;5053512;28;19952;-72
2023/03/08 12:32:24;;;;;;;;;;;14.10;99.90;;;;;;5053047;28;20003;-72
2023/03/08 12:34:59;;;;;;;;;;;14.00;99.90;;;;;;5054142;28;20298;-72
2023/03/08 12:37:27;;;;;;;;;;;14.10;99.90;;;;;;5053289;28;20252;-72
2023/03/08 12:40:07;;;;;;;;;;;14.10;99.90;;;;;;5053350;28;19909;-72
2023/03/08 12:42:39;;;;;;;;;;;14.20;99.90;;;;;;5053497;28;19922;-72
2023/03/08 12:45:25;;;;;;;;;;;14.20;99.90;;;;;;5053173;28;19980;-72
2023/03/08 12:48:13;;;;;;;;;;;14.30;99.90;;;;;;5056536;28;19915;-72
2023/03/08 12:50:53;;;;;;;;;;;14.40;99.90;;;;;;5061102;28;19909;-72
2023/03/08 12:53:36;;;;;;;;;;;14.40;99.90;;;;;;5062591;28;19932;-72
2023/03/08 12:56:02;;;;;;;;;;;14.50;99.90;;;;;;5063619;28;19916;-72
2023/03/08 12:58:28;;;;;;;;;;;14.70;99.90;;;;;;5065379;28;20190;-72
2023/03/08 13:00:58;;;;;;;;;;;14.80;99.90;;;;;;5065264;28;20278;-72
2023/03/08 13:03:26;;;;;;;;;;;14.90;99.90;;;;;;5063407;28;20306;-72
2023/03/08 13:05:52;;;;;;;;;;;15.00;99.90;;;;;;5064936;28;19909;-72
2023/03/08 13:08:22;;;;;;;;;;;15.10;99.90;;;;;;5065852;28;19909;-72
2023/03/08 13:10:47;;;;;;;;;;;15.20;99.90;;;;;;5064986;28;19909;-72
2023/03/08 13:13:20;;;;;;;;;;;15.30;99.90;;;;;;5062815;28;20058;-72
2023/03/08 13:15:46;;;;;;;;;;;15.30;99.90;;;;;;5060272;28;19912;-72
2023/03/08 13:18:14;;;;;;;;;;;15.40;99.90;;;;;;5057194;28;19908;-72
2023/03/08 13:20:40;;;;;;;;;;;15.40;99.90;;;;;;5059790;28;19966;-72
2023/03/08 13:23:14;;;;;;;;;;;15.30;99.90;;;;;;5059240;28;19916;-72
2023/03/08 13:25:48;;;;;;;;;;;15.30;99.90;;;;;;5062565;28;19913;-71
2023/03/08 13:28:15;;;;;;;;;;;15.20;99.90;;;;;;5066088;28;19909;-72
2023/03/08 13:30:45;;;;;;;;;;;15.20;99.90;;;;;;5071215;28;19976;-72
2023/03/08 13:33:13;;;;;;;;;;;15.20;99.90;;;;;;5073604;28;19924;-72
2023/03/08 13:35:38;;;;;;;;;;;15.10;99.90;;;;;;5069555;28;20389;-72
2023/03/08 13:38:04;;;;;;;;;;;15.10;99.90;;;;;;5071431;28;19909;-72
2023/03/08 13:40:30;;;;;;;;;;;15.10;99.90;;;;;;5069312;28;19909;-72
2023/03/08 13:43:01;;;;;;;;;;;15.10;99.90;;;;;;5056880;28;19982;-72
2023/03/08 13:45:27;;;;;;;;;;;15.00;99.90;;;;;;5056993;28;19913;-72
2023/03/08 13:47:53;;;;;;;;;;;15.00;99.90;;;;;;5055952;28;20005;-72
2023/03/08 13:50:28;;;;;;;;;;;14.90;99.90;;;;;;5056273;28;19909;-72
2023/03/08 13:52:54;;;;;;;;;;;14.70;99.90;;;;;;5056524;28;19909;-72
2023/03/08 13:55:24;;;;;;;;;;;14.50;99.90;;;;;;5059118;28;19975;-72
2023/03/08 13:57:51;;;;;;;;;;;14.40;99.90;;;;;;5061448;28;19980;-72
2023/03/08 14:00:23;;;;;;;;;;;14.30;99.90;;;;;;5060391;28;19939;-72
2023/03/08 14:02:51;;;;;;;;;;;14.20;99.90;;;;;;5060067;28;19954;-71
2023/03/08 14:05:18;;;;;;;;;;;14.20;99.90;;;;;;5059696;28;19931;-72
2023/03/08 14:07:53;;;;;;;;;;;14.20;99.90;;;;;;5058858;28;19924;-72
2023/03/08 14:10:23;;;;;;;;;;;14.10;99.90;;;;;;5055771;28;19971;-72
2023/03/08 14:12:48;;;;;;;;;;;14.10;99.90;;;;;;5055477;28;19913;-72
2023/03/08 14:15:16;;;;;;;;;;;14.10;99.90;;;;;;5055533;28;19932;-72
2023/03/08 14:17:42;;;;;;;;;;;14.10;99.90;;;;;;5055220;28;20075;-72
2023/03/08 14:20:33;;;;;;;;;;;14.00;99.90;;;;;;5057758;28;20007;-72